Decoded Metar for KCGE (CAMBRIDGE-DORCH in MD, USA) (IATA:CGE) | Meteo·Mobile Aviation Weather
aviador You're here:

KCGE Decoded Metar

CAMBRIDGE-DORCH in MD, USA
Report Time2019-01-19 06:40:00
UTC Time2019-01-19 06:55:13
Flight Rules mvfr MVFR
WindCalm
Visibility4828 m
Phenomena:Mist
Clouds:Overcast 055 Hf
Ceiling5,500 ft
Temp00°C (ISA -15)
Dew Point00°C (100% RH)
AAT-2.0°C
QNH1023 hPa
Density Alt-2,067 ft
Elevation20 ft
Report Wrong Elevation
Raw Report
KCGE 190640Z AUTO 00000KT 3SM BR OVC055 00/00 A3021 RMK A01=

Extra information for KCGE:More info

Metar Taf Metar & Taf Last 4 Metars F.Rules Stats Wind Profile Meteogram Temp Stats Airport Information Weather charts Add Link Nearby VenuesMetar ALERT Operation Metar Decoded Social comments

AIRNAV info for KCGE